sensor_id;sensor_type;location;lat;lon;timestamp;P1;durP1;ratioP1;P2;durP2;ratioP2
5585;SDS011;2815;54.094;12.112;2022-09-11T00:00:36;60.85;;;26.77;;
5585;SDS011;2815;54.094;12.112;2022-09-11T00:03:08;59.75;;;25.33;;
5585;SDS011;2815;54.094;12.112;2022-09-11T00:05:39;56.25;;;25.08;;
5585;SDS011;2815;54.094;12.112;2022-09-11T00:08:11;64.75;;;25.67;;
5585;SDS011;2815;54.094;12.112;2022-09-11T00:10:45;57.92;;;25.08;;
5585;SDS011;2815;54.094;12.112;2022-09-11T00:13:17;55.35;;;24.45;;
5585;SDS011;2815;54.094;12.112;2022-09-11T00:15:50;55.42;;;25.35;;
5585;SDS011;2815;54.094;12.112;2022-09-11T00:18:23;65.63;;;26.50;;
5585;SDS011;2815;54.094;12.112;2022-09-11T00:20:54;55.60;;;24.67;;
5585;SDS011;2815;54.094;12.112;2022-09-11T00:23:26;55.10;;;23.95;;
5585;SDS011;2815;54.094;12.112;2022-09-11T00:25:59;52.65;;;24.23;;
5585;SDS011;2815;54.094;12.112;2022-09-11T00:28:30;56.25;;;23.65;;
5585;SDS011;2815;54.094;12.112;2022-09-11T00:31:03;53.70;;;24.17;;
5585;SDS011;2815;54.094;12.112;2022-09-11T00:33:37;52.95;;;25.27;;
5585;SDS011;2815;54.094;12.112;2022-09-11T00:36:10;61.20;;;25.40;;
5585;SDS011;2815;54.094;12.112;2022-09-11T00:38:43;56.92;;;24.60;;
5585;SDS011;2815;54.094;12.112;2022-09-11T00:41:15;62.97;;;27.92;;
5585;SDS011;2815;54.094;12.112;2022-09-11T00:46:20;62.72;;;26.70;;
5585;SDS011;2815;54.094;12.112;2022-09-11T00:48:53;59.10;;;25.55;;
5585;SDS011;2815;54.094;12.112;2022-09-11T00:51:27;63.63;;;25.83;;
5585;SDS011;2815;54.094;12.112;2022-09-11T00:54:00;62.78;;;27.08;;
5585;SDS011;2815;54.094;12.112;2022-09-11T00:56:33;63.00;;;26.20;;
5585;SDS011;2815;54.094;12.112;2022-09-11T00:59:06;62.55;;;27.20;;
5585;SDS011;2815;54.094;12.112;2022-09-11T01:01:37;59.88;;;27.23;;
5585;SDS011;2815;54.094;12.112;2022-09-11T01:04:10;62.40;;;25.55;;
5585;SDS011;2815;54.094;12.112;2022-09-11T01:06:42;65.20;;;27.50;;
5585;SDS011;2815;54.094;12.112;2022-09-11T01:09:15;64.95;;;27.35;;
5585;SDS011;2815;54.094;12.112;2022-09-11T01:11:47;62.50;;;27.00;;
5585;SDS011;2815;54.094;12.112;2022-09-11T01:19:00;76.38;;;29.13;;
5585;SDS011;2815;54.094;12.112;2022-09-11T01:21:45;68.55;;;28.00;;
5585;SDS011;2815;54.094;12.112;2022-09-11T01:24:25;75.82;;;29.98;;
5585;SDS011;2815;54.094;12.112;2022-09-11T01:27:09;77.18;;;29.98;;
5585;SDS011;2815;54.094;12.112;2022-09-11T01:30:04;83.25;;;29.70;;
5585;SDS011;2815;54.094;12.112;2022-09-11T01:32:42;74.85;;;28.92;;
5585;SDS011;2815;54.094;12.112;2022-09-11T01:35:21;87.15;;;30.90;;
5585;SDS011;2815;54.094;12.112;2022-09-11T01:37:56;83.70;;;31.88;;
5585;SDS011;2815;54.094;12.112;2022-09-11T01:40:31;75.40;;;30.42;;
5585;SDS011;2815;54.094;12.112;2022-09-11T01:43:07;76.38;;;30.40;;
5585;SDS011;2815;54.094;12.112;2022-09-11T01:45:42;78.18;;;31.52;;
5585;SDS011;2815;54.094;12.112;2022-09-11T01:48:15;84.13;;;30.27;;
5585;SDS011;2815;54.094;12.112;2022-09-11T01:50:47;77.18;;;29.80;;
5585;SDS011;2815;54.094;12.112;2022-09-11T01:53:19;80.40;;;29.67;;
5585;SDS011;2815;54.094;12.112;2022-09-11T01:55:53;82.45;;;30.25;;
5585;SDS011;2815;54.094;12.112;2022-09-11T01:58:30;83.70;;;30.27;;
5585;SDS011;2815;54.094;12.112;2022-09-11T02:01:03;69.68;;;29.33;;
5585;SDS011;2815;54.094;12.112;2022-09-11T02:03:37;80.72;;;29.40;;
5585;SDS011;2815;54.094;12.112;2022-09-11T02:06:11;78.45;;;27.38;;
5585;SDS011;2815;54.094;12.112;2022-09-11T02:08:46;88.40;;;29.90;;
5585;SDS011;2815;54.094;12.112;2022-09-11T02:11:22;93.38;;;30.42;;
5585;SDS011;2815;54.094;12.112;2022-09-11T02:13:54;103.05;;;29.05;;
5585;SDS011;2815;54.094;12.112;2022-09-11T02:16:31;92.97;;;27.25;;
5585;SDS011;2815;54.094;12.112;2022-09-11T02:19:08;88.90;;;27.30;;
5585;SDS011;2815;54.094;12.112;2022-09-11T02:21:40;102.97;;;28.40;;
5585;SDS011;2815;54.094;12.112;2022-09-11T02:24:12;87.60;;;27.02;;
5585;SDS011;2815;54.094;12.112;2022-09-11T02:26:44;84.78;;;28.13;;
5585;SDS011;2815;54.094;12.112;2022-09-11T02:29:19;100.50;;;27.08;;
5585;SDS011;2815;54.094;12.112;2022-09-11T02:31:50;86.82;;;28.10;;
5585;SDS011;2815;54.094;12.112;2022-09-11T02:34:23;91.38;;;26.65;;
5585;SDS011;2815;54.094;12.112;2022-09-11T02:37:07;92.30;;;27.40;;
5585;SDS011;2815;54.094;12.112;2022-09-11T02:39:56;81.70;;;26.73;;
5585;SDS011;2815;54.094;12.112;2022-09-11T02:42:37;88.53;;;25.73;;
5585;SDS011;2815;54.094;12.112;2022-09-11T02:45:15;92.78;;;26.95;;
5585;SDS011;2815;54.094;12.112;2022-09-11T02:47:54;111.55;;;28.35;;
5585;SDS011;2815;54.094;12.112;2022-09-11T02:50:36;116.93;;;27.75;;
5585;SDS011;2815;54.094;12.112;2022-09-11T02:53:11;153.98;;;28.85;;
5585;SDS011;2815;54.094;12.112;2022-09-11T02:55:50;198.32;;;28.70;;
5585;SDS011;2815;54.094;12.112;2022-09-11T02:58:26;182.20;;;29.15;;
5585;SDS011;2815;54.094;12.112;2022-09-11T03:01:01;181.80;;;25.55;;
5585;SDS011;2815;54.094;12.112;2022-09-11T03:03:37;140.85;;;26.65;;
5585;SDS011;2815;54.094;12.112;2022-09-11T03:06:11;146.23;;;27.50;;
5585;SDS011;2815;54.094;12.112;2022-09-11T03:08:44;97.45;;;25.45;;
5585;SDS011;2815;54.094;12.112;2022-09-11T03:11:15;105.53;;;25.60;;
5585;SDS011;2815;54.094;12.112;2022-09-11T03:13:48;93.40;;;25.67;;
5585;SDS011;2815;54.094;12.112;2022-09-11T03:16:20;98.75;;;25.67;;
5585;SDS011;2815;54.094;12.112;2022-09-11T03:18:52;88.07;;;23.38;;
5585;SDS011;2815;54.094;12.112;2022-09-11T03:21:23;95.20;;;24.85;;
5585;SDS011;2815;54.094;12.112;2022-09-11T03:23:54;103.88;;;25.38;;
5585;SDS011;2815;54.094;12.112;2022-09-11T03:26:25;88.47;;;21.77;;
5585;SDS011;2815;54.094;12.112;2022-09-11T03:28:59;80.35;;;22.98;;
5585;SDS011;2815;54.094;12.112;2022-09-11T03:31:32;100.17;;;23.77;;
5585;SDS011;2815;54.094;12.112;2022-09-11T03:34:08;105.20;;;25.17;;
5585;SDS011;2815;54.094;12.112;2022-09-11T03:36:39;95.10;;;22.52;;
5585;SDS011;2815;54.094;12.112;2022-09-11T03:39:10;88.32;;;23.48;;
5585;SDS011;2815;54.094;12.112;2022-09-11T03:41:41;91.35;;;22.15;;
5585;SDS011;2815;54.094;12.112;2022-09-11T03:44:12;68.82;;;20.70;;
5585;SDS011;2815;54.094;12.112;2022-09-11T03:46:44;63.58;;;21.27;;
5585;SDS011;2815;54.094;12.112;2022-09-11T03:49:15;59.47;;;19.58;;
5585;SDS011;2815;54.094;12.112;2022-09-11T03:51:46;66.22;;;20.70;;
5585;SDS011;2815;54.094;12.112;2022-09-11T03:54:17;73.78;;;20.75;;
5585;SDS011;2815;54.094;12.112;2022-09-11T03:56:49;71.28;;;21.15;;
5585;SDS011;2815;54.094;12.112;2022-09-11T03:59:21;60.13;;;19.92;;
5585;SDS011;2815;54.094;12.112;2022-09-11T04:01:53;58.47;;;18.65;;
5585;SDS011;2815;54.094;12.112;2022-09-11T04:06:54;50.55;;;17.15;;
5585;SDS011;2815;54.094;12.112;2022-09-11T04:09:25;49.35;;;18.10;;
5585;SDS011;2815;54.094;12.112;2022-09-11T04:11:55;57.53;;;18.75;;
5585;SDS011;2815;54.094;12.112;2022-09-11T04:16:59;49.38;;;18.75;;
5585;SDS011;2815;54.094;12.112;2022-09-11T04:19:30;59.60;;;21.40;;
5585;SDS011;2815;54.094;12.112;2022-09-11T04:22:02;59.40;;;21.80;;
5585;SDS011;2815;54.094;12.112;2022-09-11T04:24:36;61.90;;;19.63;;
5585;SDS011;2815;54.094;12.112;2022-09-11T04:27:08;53.38;;;19.42;;
5585;SDS011;2815;54.094;12.112;2022-09-11T04:29:41;48.95;;;18.25;;
5585;SDS011;2815;54.094;12.112;2022-09-11T04:32:13;54.50;;;18.80;;
5585;SDS011;2815;54.094;12.112;2022-09-11T04:34:45;46.97;;;17.05;;
5585;SDS011;2815;54.094;12.112;2022-09-11T04:37:17;63.35;;;18.77;;
5585;SDS011;2815;54.094;12.112;2022-09-11T04:39:49;79.28;;;19.58;;
5585;SDS011;2815;54.094;12.112;2022-09-11T04:42:20;98.75;;;18.85;;
5585;SDS011;2815;54.094;12.112;2022-09-11T04:44:53;68.38;;;20.13;;
5585;SDS011;2815;54.094;12.112;2022-09-11T04:47:26;77.38;;;20.83;;
5585;SDS011;2815;54.094;12.112;2022-09-11T04:49:58;82.30;;;20.45;;
5585;SDS011;2815;54.094;12.112;2022-09-11T04:52:30;140.65;;;21.30;;
5585;SDS011;2815;54.094;12.112;2022-09-11T04:55:02;119.47;;;20.50;;
5585;SDS011;2815;54.094;12.112;2022-09-11T04:57:33;136.32;;;20.23;;
5585;SDS011;2815;54.094;12.112;2022-09-11T05:00:04;109.28;;;19.05;;
5585;SDS011;2815;54.094;12.112;2022-09-11T05:02:37;177.45;;;20.23;;
5585;SDS011;2815;54.094;12.112;2022-09-11T05:05:09;283.15;;;21.95;;
5585;SDS011;2815;54.094;12.112;2022-09-11T05:07:41;222.18;;;18.48;;
5585;SDS011;2815;54.094;12.112;2022-09-11T05:10:13;258.23;;;19.27;;
5585;SDS011;2815;54.094;12.112;2022-09-11T05:12:45;210.02;;;19.48;;
5585;SDS011;2815;54.094;12.112;2022-09-11T05:15:16;127.43;;;18.38;;
5585;SDS011;2815;54.094;12.112;2022-09-11T05:17:46;91.10;;;18.45;;
5585;SDS011;2815;54.094;12.112;2022-09-11T05:20:21;70.82;;;18.52;;
5585;SDS011;2815;54.094;12.112;2022-09-11T05:22:52;66.45;;;19.40;;
5585;SDS011;2815;54.094;12.112;2022-09-11T05:25:24;73.37;;;21.37;;
5585;SDS011;2815;54.094;12.112;2022-09-11T05:27:55;69.50;;;20.73;;
5585;SDS011;2815;54.094;12.112;2022-09-11T05:30:27;66.15;;;19.52;;
5585;SDS011;2815;54.094;12.112;2022-09-11T05:32:59;59.53;;;18.77;;
5585;SDS011;2815;54.094;12.112;2022-09-11T05:35:30;56.88;;;17.83;;
5585;SDS011;2815;54.094;12.112;2022-09-11T05:38:01;48.78;;;17.48;;
5585;SDS011;2815;54.094;12.112;2022-09-11T05:40:32;58.30;;;19.33;;
5585;SDS011;2815;54.094;12.112;2022-09-11T05:43:03;49.95;;;17.25;;
5585;SDS011;2815;54.094;12.112;2022-09-11T05:45:34;52.63;;;18.17;;
5585;SDS011;2815;54.094;12.112;2022-09-11T05:48:07;48.70;;;18.77;;
5585;SDS011;2815;54.094;12.112;2022-09-11T05:50:39;46.20;;;18.77;;
5585;SDS011;2815;54.094;12.112;2022-09-11T05:53:10;45.72;;;18.02;;
5585;SDS011;2815;54.094;12.112;2022-09-11T05:55:42;42.15;;;19.15;;
5585;SDS011;2815;54.094;12.112;2022-09-11T05:58:13;49.42;;;19.65;;
5585;SDS011;2815;54.094;12.112;2022-09-11T06:00:45;46.80;;;18.65;;
5585;SDS011;2815;54.094;12.112;2022-09-11T06:03:19;42.33;;;18.60;;
5585;SDS011;2815;54.094;12.112;2022-09-11T06:05:49;41.33;;;18.27;;
5585;SDS011;2815;54.094;12.112;2022-09-11T06:08:21;48.58;;;19.33;;
5585;SDS011;2815;54.094;12.112;2022-09-11T06:10:51;42.63;;;19.27;;
5585;SDS011;2815;54.094;12.112;2022-09-11T06:13:23;43.50;;;18.92;;
5585;SDS011;2815;54.094;12.112;2022-09-11T06:15:54;42.92;;;19.05;;
5585;SDS011;2815;54.094;12.112;2022-09-11T06:18:27;43.08;;;18.77;;
5585;SDS011;2815;54.094;12.112;2022-09-11T06:20:59;43.50;;;19.30;;
5585;SDS011;2815;54.094;12.112;2022-09-11T06:23:37;36.22;;;17.98;;
5585;SDS011;2815;54.094;12.112;2022-09-11T06:26:10;39.85;;;18.35;;
5585;SDS011;2815;54.094;12.112;2022-09-11T06:28:44;38.42;;;17.48;;
5585;SDS011;2815;54.094;12.112;2022-09-11T06:31:16;38.28;;;18.05;;
5585;SDS011;2815;54.094;12.112;2022-09-11T06:33:50;35.88;;;16.90;;
5585;SDS011;2815;54.094;12.112;2022-09-11T06:36:21;33.58;;;18.23;;
5585;SDS011;2815;54.094;12.112;2022-09-11T06:38:56;34.25;;;16.00;;
5585;SDS011;2815;54.094;12.112;2022-09-11T06:41:29;40.53;;;17.17;;
5585;SDS011;2815;54.094;12.112;2022-09-11T06:44:08;27.42;;;14.75;;
5585;SDS011;2815;54.094;12.112;2022-09-11T06:46:41;27.73;;;14.18;;
5585;SDS011;2815;54.094;12.112;2022-09-11T06:49:16;25.17;;;13.98;;
5585;SDS011;2815;54.094;12.112;2022-09-11T06:52:03;30.48;;;13.93;;
5585;SDS011;2815;54.094;12.112;2022-09-11T06:54:33;24.42;;;12.57;;
5585;SDS011;2815;54.094;12.112;2022-09-11T06:57:10;20.85;;;10.93;;
5585;SDS011;2815;54.094;12.112;2022-09-11T06:59:41;16.77;;;8.80;;
5585;SDS011;2815;54.094;12.112;2022-09-11T07:02:12;9.07;;;5.20;;
5585;SDS011;2815;54.094;12.112;2022-09-11T07:04:47;6.05;;;4.50;;
5585;SDS011;2815;54.094;12.112;2022-09-11T07:07:18;6.43;;;3.72;;
5585;SDS011;2815;54.094;12.112;2022-09-11T07:09:49;4.28;;;3.13;;
5585;SDS011;2815;54.094;12.112;2022-09-11T07:12:20;4.75;;;2.90;;
5585;SDS011;2815;54.094;12.112;2022-09-11T07:14:52;3.88;;;2.90;;
5585;SDS011;2815;54.094;12.112;2022-09-11T07:17:23;4.28;;;2.05;;
5585;SDS011;2815;54.094;12.112;2022-09-11T07:19:55;2.88;;;2.05;;
5585;SDS011;2815;54.094;12.112;2022-09-11T07:22:27;2.38;;;1.73;;
5585;SDS011;2815;54.094;12.112;2022-09-11T07:25:00;2.92;;;1.60;;
5585;SDS011;2815;54.094;12.112;2022-09-11T07:27:38;2.55;;;1.33;;
5585;SDS011;2815;54.094;12.112;2022-09-11T07:30:10;1.58;;;1.25;;
5585;SDS011;2815;54.094;12.112;2022-09-11T07:32:42;3.67;;;1.13;;
5585;SDS011;2815;54.094;12.112;2022-09-11T07:35:15;2.35;;;1.70;;
5585;SDS011;2815;54.094;12.112;2022-09-11T07:37:51;6.30;;;1.65;;
5585;SDS011;2815;54.094;12.112;2022-09-11T07:40:26;1.98;;;1.33;;
5585;SDS011;2815;54.094;12.112;2022-09-11T07:43:00;7.03;;;1.80;;
5585;SDS011;2815;54.094;12.112;2022-09-11T07:45:32;1.45;;;1.30;;
5585;SDS011;2815;54.094;12.112;2022-09-11T07:48:05;1.45;;;1.10;;
5585;SDS011;2815;54.094;12.112;2022-09-11T07:50:36;1.38;;;1.20;;
5585;SDS011;2815;54.094;12.112;2022-09-11T07:53:06;1.60;;;1.13;;
5585;SDS011;2815;54.094;12.112;2022-09-11T07:55:36;1.08;;;0.98;;
5585;SDS011;2815;54.094;12.112;2022-09-11T07:58:06;2.15;;;1.27;;
5585;SDS011;2815;54.094;12.112;2022-09-11T08:00:36;1.35;;;1.00;;
5585;SDS011;2815;54.094;12.112;2022-09-11T08:03:13;1.13;;;1.00;;
5585;SDS011;2815;54.094;12.112;2022-09-11T08:05:45;3.28;;;1.20;;
5585;SDS011;2815;54.094;12.112;2022-09-11T08:08:14;1.50;;;1.08;;
5585;SDS011;2815;54.094;12.112;2022-09-11T08:10:44;1.55;;;1.00;;
5585;SDS011;2815;54.094;12.112;2022-09-11T08:13:13;1.13;;;0.95;;
5585;SDS011;2815;54.094;12.112;2022-09-11T08:18:17;1.00;;;0.88;;
5585;SDS011;2815;54.094;12.112;2022-09-11T08:20:48;1.45;;;0.80;;
5585;SDS011;2815;54.094;12.112;2022-09-11T08:23:19;1.63;;;0.90;;
5585;SDS011;2815;54.094;12.112;2022-09-11T08:25:48;1.30;;;0.77;;
5585;SDS011;2815;54.094;12.112;2022-09-11T08:28:19;1.33;;;0.90;;
5585;SDS011;2815;54.094;12.112;2022-09-11T08:30:48;1.30;;;0.90;;
5585;SDS011;2815;54.094;12.112;2022-09-11T08:33:18;1.60;;;0.70;;
5585;SDS011;2815;54.094;12.112;2022-09-11T08:35:48;2.28;;;0.80;;
5585;SDS011;2815;54.094;12.112;2022-09-11T08:38:16;1.48;;;0.90;;
5585;SDS011;2815;54.094;12.112;2022-09-11T08:40:46;1.00;;;0.90;;
5585;SDS011;2815;54.094;12.112;2022-09-11T08:43:18;1.58;;;0.90;;
5585;SDS011;2815;54.094;12.112;2022-09-11T08:45:53;1.58;;;0.80;;
5585;SDS011;2815;54.094;12.112;2022-09-11T08:48:27;0.73;;;0.70;;
5585;SDS011;2815;54.094;12.112;2022-09-11T08:51:02;2.88;;;1.00;;
5585;SDS011;2815;54.094;12.112;2022-09-11T08:53:33;1.50;;;0.98;;
5585;SDS011;2815;54.094;12.112;2022-09-11T08:56:06;1.15;;;0.70;;
5585;SDS011;2815;54.094;12.112;2022-09-11T08:58:41;0.88;;;0.70;;
5585;SDS011;2815;54.094;12.112;2022-09-11T09:01:19;0.82;;;0.70;;
5585;SDS011;2815;54.094;12.112;2022-09-11T09:07:01;1.13;;;0.60;;
5585;SDS011;2815;54.094;12.112;2022-09-11T09:09:38;1.25;;;0.70;;
5585;SDS011;2815;54.094;12.112;2022-09-11T09:12:16;2.78;;;0.80;;
5585;SDS011;2815;54.094;12.112;2022-09-11T09:14:50;3.70;;;1.00;;
5585;SDS011;2815;54.094;12.112;2022-09-11T09:17:32;1.30;;;0.80;;
5585;SDS011;2815;54.094;12.112;2022-09-11T09:20:08;1.20;;;0.60;;
5585;SDS011;2815;54.094;12.112;2022-09-11T09:22:44;2.85;;;0.80;;
5585;SDS011;2815;54.094;12.112;2022-09-11T09:25:18;1.42;;;0.80;;
5585;SDS011;2815;54.094;12.112;2022-09-11T09:27:54;0.93;;;0.80;;
5585;SDS011;2815;54.094;12.112;2022-09-11T09:30:33;1.90;;;0.85;;
5585;SDS011;2815;54.094;12.112;2022-09-11T09:33:14;1.80;;;0.82;;
5585;SDS011;2815;54.094;12.112;2022-09-11T09:35:52;0.95;;;0.60;;
5585;SDS011;2815;54.094;12.112;2022-09-11T09:38:27;0.93;;;0.75;;
5585;SDS011;2815;54.094;12.112;2022-09-11T09:41:07;0.70;;;0.60;;
5585;SDS011;2815;54.094;12.112;2022-09-11T09:43:48;0.90;;;0.52;;
5585;SDS011;2815;54.094;12.112;2022-09-11T09:46:25;0.88;;;0.77;;
5585;SDS011;2815;54.094;12.112;2022-09-11T09:48:59;1.90;;;0.80;;
5585;SDS011;2815;54.094;12.112;2022-09-11T09:51:30;0.88;;;0.80;;
5585;SDS011;2815;54.094;12.112;2022-09-11T09:54:03;4.13;;;0.70;;
5585;SDS011;2815;54.094;12.112;2022-09-11T09:59:11;1.63;;;0.70;;
5585;SDS011;2815;54.094;12.112;2022-09-11T10:01:44;0.80;;;0.50;;
5585;SDS011;2815;54.094;12.112;2022-09-11T10:04:16;2.15;;;0.60;;
5585;SDS011;2815;54.094;12.112;2022-09-11T10:06:51;1.13;;;0.80;;
5585;SDS011;2815;54.094;12.112;2022-09-11T10:09:23;1.42;;;0.80;;
5585;SDS011;2815;54.094;12.112;2022-09-11T10:11:56;1.67;;;0.90;;
5585;SDS011;2815;54.094;12.112;2022-09-11T10:14:31;0.90;;;0.70;;
5585;SDS011;2815;54.094;12.112;2022-09-11T10:17:21;1.23;;;0.70;;
5585;SDS011;2815;54.094;12.112;2022-09-11T10:19:54;1.55;;;0.70;;
5585;SDS011;2815;54.094;12.112;2022-09-11T10:22:28;2.28;;;0.75;;
5585;SDS011;2815;54.094;12.112;2022-09-11T10:25:03;2.05;;;0.95;;
5585;SDS011;2815;54.094;12.112;2022-09-11T10:27:39;2.15;;;0.70;;
5585;SDS011;2815;54.094;12.112;2022-09-11T10:30:28;0.82;;;0.70;;
5585;SDS011;2815;54.094;12.112;2022-09-11T10:33:02;1.00;;;0.70;;
5585;SDS011;2815;54.094;12.112;2022-09-11T10:35:35;1.13;;;0.77;;
5585;SDS011;2815;54.094;12.112;2022-09-11T10:38:13;2.00;;;0.80;;
5585;SDS011;2815;54.094;12.112;2022-09-11T10:40:55;0.70;;;0.70;;
5585;SDS011;2815;54.094;12.112;2022-09-11T10:43:32;0.70;;;0.70;;
5585;SDS011;2815;54.094;12.112;2022-09-11T10:46:19;1.33;;;1.00;;
5585;SDS011;2815;54.094;12.112;2022-09-11T10:49:07;1.08;;;0.77;;
5585;SDS011;2815;54.094;12.112;2022-09-11T10:51:57;0.95;;;0.75;;
5585;SDS011;2815;54.094;12.112;2022-09-11T10:54:33;1.25;;;0.80;;
5585;SDS011;2815;54.094;12.112;2022-09-11T10:57:16;0.60;;;0.60;;
5585;SDS011;2815;54.094;12.112;2022-09-11T10:59:54;1.10;;;0.73;;
5585;SDS011;2815;54.094;12.112;2022-09-11T11:02:30;0.98;;;0.70;;
5585;SDS011;2815;54.094;12.112;2022-09-11T11:05:04;1.67;;;0.80;;
5585;SDS011;2815;54.094;12.112;2022-09-11T11:07:46;1.42;;;1.00;;
5585;SDS011;2815;54.094;12.112;2022-09-11T11:10:37;1.85;;;0.65;;
5585;SDS011;2815;54.094;12.112;2022-09-11T11:13:19;2.42;;;0.90;;
5585;SDS011;2815;54.094;12.112;2022-09-11T11:16:01;1.42;;;0.80;;
5585;SDS011;2815;54.094;12.112;2022-09-11T11:18:44;1.25;;;0.85;;
5585;SDS011;2815;54.094;12.112;2022-09-11T11:21:24;1.08;;;0.90;;
5585;SDS011;2815;54.094;12.112;2022-09-11T11:24:04;0.70;;;0.70;;
5585;SDS011;2815;54.094;12.112;2022-09-11T11:26:48;0.60;;;0.60;;
5585;SDS011;2815;54.094;12.112;2022-09-11T11:29:39;0.98;;;0.77;;
5585;SDS011;2815;54.094;12.112;2022-09-11T11:35:01;1.52;;;0.82;;
5585;SDS011;2815;54.094;12.112;2022-09-11T11:37:39;1.42;;;1.00;;
5585;SDS011;2815;54.094;12.112;2022-09-11T11:40:12;1.20;;;0.70;;
5585;SDS011;2815;54.094;12.112;2022-09-11T11:42:50;1.15;;;0.90;;
5585;SDS011;2815;54.094;12.112;2022-09-11T11:45:26;1.20;;;0.93;;
5585;SDS011;2815;54.094;12.112;2022-09-11T11:48:05;1.48;;;1.10;;
5585;SDS011;2815;54.094;12.112;2022-09-11T11:50:38;2.60;;;0.93;;
5585;SDS011;2815;54.094;12.112;2022-09-11T11:53:16;1.52;;;0.73;;
5585;SDS011;2815;54.094;12.112;2022-09-11T11:55:53;1.35;;;0.70;;
5585;SDS011;2815;54.094;12.112;2022-09-11T11:58:36;2.00;;;1.20;;
5585;SDS011;2815;54.094;12.112;2022-09-11T12:01:13;2.75;;;0.90;;
5585;SDS011;2815;54.094;12.112;2022-09-11T12:03:49;1.52;;;0.80;;
5585;SDS011;2815;54.094;12.112;2022-09-11T12:06:23;1.30;;;0.90;;
5585;SDS011;2815;54.094;12.112;2022-09-11T12:08:55;1.42;;;0.90;;
5585;SDS011;2815;54.094;12.112;2022-09-11T12:11:28;1.35;;;1.00;;
5585;SDS011;2815;54.094;12.112;2022-09-11T12:14:00;2.53;;;0.85;;
5585;SDS011;2815;54.094;12.112;2022-09-11T12:16:33;1.20;;;1.00;;
5585;SDS011;2815;54.094;12.112;2022-09-11T12:19:03;0.63;;;0.63;;
5585;SDS011;2815;54.094;12.112;2022-09-11T12:21:37;1.45;;;0.88;;
5585;SDS011;2815;54.094;12.112;2022-09-11T12:24:15;1.55;;;0.90;;
5585;SDS011;2815;54.094;12.112;2022-09-11T12:26:54;1.63;;;0.88;;
5585;SDS011;2815;54.094;12.112;2022-09-11T12:30:06;1.05;;;0.70;;
5585;SDS011;2815;54.094;12.112;2022-09-11T12:32:41;1.37;;;0.97;;
5585;SDS011;2815;54.094;12.112;2022-09-11T12:35:14;0.80;;;0.80;;
5585;SDS011;2815;54.094;12.112;2022-09-11T12:37:51;1.75;;;0.80;;
5585;SDS011;2815;54.094;12.112;2022-09-11T12:40:30;1.38;;;0.73;;
5585;SDS011;2815;54.094;12.112;2022-09-11T12:43:23;1.20;;;0.80;;
5585;SDS011;2815;54.094;12.112;2022-09-11T12:45:59;0.77;;;0.70;;
5585;SDS011;2815;54.094;12.112;2022-09-11T12:48:33;1.40;;;0.90;;
5585;SDS011;2815;54.094;12.112;2022-09-11T12:51:15;1.58;;;0.82;;
5585;SDS011;2815;54.094;12.112;2022-09-11T12:53:49;1.33;;;0.60;;
5585;SDS011;2815;54.094;12.112;2022-09-11T12:56:22;1.15;;;0.50;;
5585;SDS011;2815;54.094;12.112;2022-09-11T12:58:55;0.50;;;0.50;;
5585;SDS011;2815;54.094;12.112;2022-09-11T13:01:28;0.50;;;0.50;;
5585;SDS011;2815;54.094;12.112;2022-09-11T13:04:02;1.27;;;0.70;;
5585;SDS011;2815;54.094;12.112;2022-09-11T13:06:41;0.70;;;0.70;;
5585;SDS011;2815;54.094;12.112;2022-09-11T13:11:47;0.60;;;0.60;;
5585;SDS011;2815;54.094;12.112;2022-09-11T13:17:25;0.60;;;0.60;;
5585;SDS011;2815;54.094;12.112;2022-09-11T13:20:17;0.70;;;0.60;;
5585;SDS011;2815;54.094;12.112;2022-09-11T13:22:50;0.52;;;0.50;;
5585;SDS011;2815;54.094;12.112;2022-09-11T13:25:27;0.60;;;0.60;;
5585;SDS011;2815;54.094;12.112;2022-09-11T13:27:59;0.70;;;0.70;;
5585;SDS011;2815;54.094;12.112;2022-09-11T13:30:31;0.80;;;0.60;;
5585;SDS011;2815;54.094;12.112;2022-09-11T13:33:04;0.57;;;0.57;;
5585;SDS011;2815;54.094;12.112;2022-09-11T13:35:36;0.47;;;0.40;;
5585;SDS011;2815;54.094;12.112;2022-09-11T13:38:07;0.35;;;0.30;;
5585;SDS011;2815;54.094;12.112;2022-09-11T13:40:42;0.60;;;0.50;;
5585;SDS011;2815;54.094;12.112;2022-09-11T13:43:16;0.40;;;0.40;;
5585;SDS011;2815;54.094;12.112;2022-09-11T13:45:53;0.50;;;0.50;;
5585;SDS011;2815;54.094;12.112;2022-09-11T13:48:39;0.47;;;0.30;;
5585;SDS011;2815;54.094;12.112;2022-09-11T13:51:13;0.40;;;0.40;;
5585;SDS011;2815;54.094;12.112;2022-09-11T13:53:43;0.47;;;0.40;;
5585;SDS011;2815;54.094;12.112;2022-09-11T13:56:16;1.70;;;0.43;;
5585;SDS011;2815;54.094;12.112;2022-09-11T13:58:49;0.35;;;0.35;;
5585;SDS011;2815;54.094;12.112;2022-09-11T14:01:22;1.00;;;0.30;;
5585;SDS011;2815;54.094;12.112;2022-09-11T14:03:53;0.60;;;0.40;;
5585;SDS011;2815;54.094;12.112;2022-09-11T14:06:26;0.63;;;0.38;;
5585;SDS011;2815;54.094;12.112;2022-09-11T14:08:57;0.50;;;0.50;;
5585;SDS011;2815;54.094;12.112;2022-09-11T14:11:28;0.60;;;0.57;;
5585;SDS011;2815;54.094;12.112;2022-09-11T14:14:04;0.35;;;0.35;;
5585;SDS011;2815;54.094;12.112;2022-09-11T14:16:37;1.38;;;0.47;;
5585;SDS011;2815;54.094;12.112;2022-09-11T14:19:14;2.13;;;0.50;;
5585;SDS011;2815;54.094;12.112;2022-09-11T14:21:49;0.35;;;0.35;;
5585;SDS011;2815;54.094;12.112;2022-09-11T14:24:23;0.75;;;0.40;;
5585;SDS011;2815;54.094;12.112;2022-09-11T14:26:55;0.50;;;0.40;;
5585;SDS011;2815;54.094;12.112;2022-09-11T14:29:27;1.23;;;0.50;;
5585;SDS011;2815;54.094;12.112;2022-09-11T14:34:56;1.40;;;0.47;;
5585;SDS011;2815;54.094;12.112;2022-09-11T14:37:27;0.60;;;0.47;;
5585;SDS011;2815;54.094;12.112;2022-09-11T14:39:57;0.77;;;0.50;;
5585;SDS011;2815;54.094;12.112;2022-09-11T14:42:27;0.47;;;0.47;;
5585;SDS011;2815;54.094;12.112;2022-09-11T14:44:58;0.77;;;0.50;;
5585;SDS011;2815;54.094;12.112;2022-09-11T14:47:29;0.93;;;0.40;;
5585;SDS011;2815;54.094;12.112;2022-09-11T14:50:00;0.70;;;0.50;;
5585;SDS011;2815;54.094;12.112;2022-09-11T14:52:31;0.40;;;0.40;;
5585;SDS011;2815;54.094;12.112;2022-09-11T14:55:04;0.47;;;0.47;;
5585;SDS011;2815;54.094;12.112;2022-09-11T14:57:34;0.50;;;0.50;;
5585;SDS011;2815;54.094;12.112;2022-09-11T15:00:03;0.57;;;0.50;;
5585;SDS011;2815;54.094;12.112;2022-09-11T15:02:33;0.60;;;0.60;;
5585;SDS011;2815;54.094;12.112;2022-09-11T15:05:04;1.48;;;0.70;;
5585;SDS011;2815;54.094;12.112;2022-09-11T15:07:39;1.75;;;0.60;;
5585;SDS011;2815;54.094;12.112;2022-09-11T15:10:08;0.95;;;0.55;;
5585;SDS011;2815;54.094;12.112;2022-09-11T15:12:38;0.60;;;0.60;;
5585;SDS011;2815;54.094;12.112;2022-09-11T15:15:11;1.67;;;0.63;;
5585;SDS011;2815;54.094;12.112;2022-09-11T15:17:42;1.00;;;0.40;;
5585;SDS011;2815;54.094;12.112;2022-09-11T15:20:11;1.85;;;0.70;;
5585;SDS011;2815;54.094;12.112;2022-09-11T15:22:43;0.75;;;0.70;;
5585;SDS011;2815;54.094;12.112;2022-09-11T15:25:11;0.47;;;0.47;;
5585;SDS011;2815;54.094;12.112;2022-09-11T15:27:41;1.10;;;0.73;;
5585;SDS011;2815;54.094;12.112;2022-09-11T15:30:10;1.27;;;0.60;;
5585;SDS011;2815;54.094;12.112;2022-09-11T15:32:39;0.93;;;0.50;;
5585;SDS011;2815;54.094;12.112;2022-09-11T15:35:09;1.75;;;0.80;;
5585;SDS011;2815;54.094;12.112;2022-09-11T15:37:39;1.73;;;0.60;;
5585;SDS011;2815;54.094;12.112;2022-09-11T15:40:11;1.05;;;0.55;;
5585;SDS011;2815;54.094;12.112;2022-09-11T15:42:39;1.20;;;0.70;;
5585;SDS011;2815;54.094;12.112;2022-09-11T15:45:09;1.90;;;0.60;;
5585;SDS011;2815;54.094;12.112;2022-09-11T15:47:38;0.88;;;0.55;;
5585;SDS011;2815;54.094;12.112;2022-09-11T15:50:08;1.05;;;0.60;;
5585;SDS011;2815;54.094;12.112;2022-09-11T15:52:38;0.45;;;0.45;;
5585;SDS011;2815;54.094;12.112;2022-09-11T15:55:12;0.50;;;0.50;;
5585;SDS011;2815;54.094;12.112;2022-09-11T15:57:43;0.45;;;0.45;;
5585;SDS011;2815;54.094;12.112;2022-09-11T16:00:14;1.02;;;0.60;;